Time;durP1;ratioP1;P1;durP2;ratioP2;P2;SDS_P1;SDS_P2;PMS_P1;PMS_P2;Temp;Humidity;BMP_temperature;BMP_pressure;BME280_temperature;BME280_humidity;BME280_pressure;Samples;Min_cycle;Max_cycle;Signal;HPM_P1;HPM_P2
2021/11/20 00:02:09;;;;;;;3.72;2.80;;;7.50;99.90;;;;;;5027667;28;20235;-75
2021/11/20 00:04:38;;;;;;;4.50;3.67;;;7.50;99.90;;;;;;5024981;28;20239;-75
2021/11/20 00:07:06;;;;;;;2.40;2.20;;;7.60;99.90;;;;;;5025415;28;20337;-75
2021/11/20 00:09:33;;;;;;;2.70;2.50;;;7.60;99.90;;;;;;5024346;28;20242;-75
2021/11/20 00:12:03;;;;;;;2.75;2.53;;;7.50;99.90;;;;;;5026029;28;20239;-75
2021/11/20 00:14:31;;;;;;;2.28;2.17;;;7.50;99.90;;;;;;5023698;28;20629;-74
2021/11/20 00:17:01;;;;;;;2.60;2.45;;;7.50;99.90;;;;;;5022605;28;20712;-75
2021/11/20 00:19:30;;;;;;;2.47;2.33;;;7.40;99.90;;;;;;5026415;28;20227;-74
2021/11/20 00:22:01;;;;;;;2.22;2.03;;;7.40;99.90;;;;;;5027958;28;20231;-75
2021/11/20 00:24:31;;;;;;;2.22;2.00;;;7.30;99.90;;;;;;5029533;28;20232;-74
2021/11/20 00:27:00;;;;;;;2.30;2.15;;;7.40;99.90;;;;;;5021719;28;20238;-75
2021/11/20 00:29:38;;;;;;;2.35;2.15;;;7.40;99.90;;;;;;5026965;28;20223;-75
2021/11/20 00:32:13;;;;;;;2.40;2.30;;;7.40;99.90;;;;;;5025833;28;20247;-74
2021/11/20 00:34:41;;;;;;;1.95;1.85;;;7.40;99.90;;;;;;5028189;28;20720;-75
2021/11/20 00:37:08;;;;;;;2.45;2.25;;;7.40;99.90;;;;;;5028016;28;20214;-75
2021/11/20 00:39:36;;;;;;;2.05;1.95;;;7.40;99.90;;;;;;5027814;28;20395;-75
2021/11/20 00:42:06;;;;;;;2.45;2.25;;;7.40;99.90;;;;;;5028319;28;20223;-74
2021/11/20 00:44:33;;;;;;;2.30;2.20;;;7.30;99.90;;;;;;5026507;28;20224;-74
2021/11/20 00:47:01;;;;;;;2.30;2.20;;;7.30;99.90;;;;;;5022753;28;20243;-74
2021/11/20 00:49:30;;;;;;;2.42;2.22;;;7.30;99.90;;;;;;5024514;28;20219;-75
2021/11/20 00:51:57;;;;;;;2.63;2.42;;;7.20;99.90;;;;;;5023566;28;20230;-74
2021/11/20 00:54:25;;;;;;;1.95;1.85;;;7.20;99.90;;;;;;5024351;28;20266;-75
2021/11/20 00:56:53;;;;;;;2.33;2.22;;;7.20;99.90;;;;;;5028724;28;20218;-74
2021/11/20 00:59:20;;;;;;;2.33;2.22;;;7.20;99.90;;;;;;5021186;28;20231;-75
2021/11/20 01:01:49;;;;;;;2.20;2.10;;;7.20;99.90;;;;;;5024568;28;20230;-74
2021/11/20 01:04:17;;;;;;;2.22;2.13;;;7.20;99.90;;;;;;5025224;28;20238;-75
2021/11/20 01:06:46;;;;;;;2.05;1.95;;;7.30;99.90;;;;;;5023003;28;20250;-75
2021/11/20 01:09:17;;;;;;;2.30;2.20;;;7.30;99.90;;;;;;5009780;22;20227;-78
2021/11/20 01:11:46;;;;;;;2.30;2.20;;;7.30;99.90;;;;;;5001620;28;20549;-77
2021/11/20 01:14:16;;;;;;;2.15;2.05;;;7.40;99.90;;;;;;5001349;28;20240;-76
2021/11/20 01:16:45;;;;;;;2.17;2.08;;;7.40;99.90;;;;;;4999890;28;20216;-77
2021/11/20 01:19:13;;;;;;;2.30;2.20;;;7.40;99.90;;;;;;5002181;28;20267;-78
2021/11/20 01:21:40;;;;;;;2.30;2.20;;;7.40;99.90;;;;;;5008150;28;20224;-78
2021/11/20 01:24:11;;;;;;;2.22;2.03;;;7.40;99.90;;;;;;5008319;28;20224;-79
2021/11/20 01:26:38;;;;;;;2.45;2.35;;;7.30;99.90;;;;;;5008322;28;20224;-78
2021/11/20 01:29:08;;;;;;;2.20;2.10;;;7.20;99.90;;;;;;5007813;28;20240;-77
2021/11/20 01:31:38;;;;;;;2.30;2.20;;;7.20;99.90;;;;;;5008961;28;20702;-78
2021/11/20 01:34:07;;;;;;;2.55;2.45;;;7.10;99.90;;;;;;5006085;28;20236;-78
2021/11/20 01:36:36;;;;;;;2.38;2.28;;;7.10;99.90;;;;;;5005780;28;20225;-78
2021/11/20 01:39:07;;;;;;;2.20;2.10;;;7.10;99.90;;;;;;5004711;28;20228;-77
2021/11/20 01:41:36;;;;;;;2.55;2.35;;;7.10;99.90;;;;;;5004632;28;20243;-77
2021/11/20 01:44:11;;;;;;;2.30;2.10;;;7.10;99.90;;;;;;5006068;28;20228;-76
2021/11/20 01:46:41;;;;;;;2.63;2.42;;;7.10;99.90;;;;;;5005522;28;20247;-78
2021/11/20 01:49:15;;;;;;;2.72;2.53;;;7.10;99.90;;;;;;5005902;28;20236;-77
2021/11/20 01:51:45;;;;;;;2.25;2.15;;;7.20;99.90;;;;;;5010283;28;20236;-78
2021/11/20 01:54:31;;;;;;;5.05;2.65;;;7.20;99.90;;;;;;5007778;28;20220;-78
2021/11/20 01:57:04;;;;;;;2.20;2.10;;;7.20;99.90;;;;;;5003181;28;20228;-78
2021/11/20 01:59:36;;;;;;;2.55;2.35;;;7.10;99.90;;;;;;5004442;28;20587;-77
2021/11/20 02:02:10;;;;;;;2.17;2.08;;;7.10;99.90;;;;;;5005898;28;20221;-76
2021/11/20 02:04:43;;;;;;;2.30;2.20;;;7.00;99.90;;;;;;5003517;28;20231;-78
2021/11/20 02:07:14;;;;;;;2.55;2.45;;;7.00;99.90;;;;;;5006405;28;20232;-78
2021/11/20 02:09:47;;;;;;;2.40;2.30;;;7.00;99.90;;;;;;5005093;28;20236;-77
2021/11/20 02:12:19;;;;;;;2.72;2.40;;;7.00;99.90;;;;;;5004812;28;20251;-78
2021/11/20 02:14:47;;;;;;;2.20;2.10;;;7.00;99.90;;;;;;5007684;28;20224;-78
2021/11/20 02:17:17;;;;;;;2.58;2.47;;;7.00;99.90;;;;;;5005252;28;20710;-77
2021/11/20 02:19:48;;;;;;;2.17;2.08;;;6.90;99.90;;;;;;5004248;28;20235;-79
2021/11/20 02:22:21;;;;;;;2.40;2.30;;;7.00;99.90;;;;;;5008265;28;20236;-78
2021/11/20 02:24:48;;;;;;;2.15;2.05;;;7.00;99.90;;;;;;5002796;28;20239;-76
2021/11/20 02:27:17;;;;;;;2.30;2.20;;;7.00;99.90;;;;;;5005354;28;20243;-78
2021/11/20 02:29:47;;;;;;;2.80;2.08;;;7.00;99.90;;;;;;5005357;28;22106;-78
2021/11/20 02:32:18;;;;;;;2.40;2.20;;;7.00;99.90;;;;;;5004618;28;20251;-77
2021/11/20 02:34:47;;;;;;;2.40;2.20;;;7.00;99.90;;;;;;5008998;28;20728;-76
2021/11/20 02:37:16;;;;;;;3.50;2.20;;;6.90;99.90;;;;;;5004899;28;20234;-76
2021/11/20 02:39:44;;;;;;;2.47;2.28;;;6.90;99.90;;;;;;5005606;28;20247;-78
2021/11/20 02:42:15;;;;;;;2.53;2.40;;;6.90;99.90;;;;;;5005924;28;20236;-78
2021/11/20 02:44:43;;;;;;;2.17;2.08;;;6.90;99.90;;;;;;5006529;28;20321;-77
2021/11/20 02:47:21;;;;;;;2.72;2.53;;;6.90;99.90;;;;;;5001549;28;20240;-78
2021/11/20 02:49:48;;;;;;;2.58;2.38;;;6.90;99.90;;;;;;5007635;28;20591;-78
2021/11/20 02:52:15;;;;;;;2.35;2.25;;;6.90;99.90;;;;;;5007101;28;20248;-77
2021/11/20 02:54:43;;;;;;;2.40;2.30;;;6.90;99.90;;;;;;5012995;28;20215;-76
2021/11/20 02:57:14;;;;;;;2.20;2.10;;;6.90;99.90;;;;;;5010097;28;20236;-78
2021/11/20 02:59:42;;;;;;;2.47;2.30;;;7.00;99.90;;;;;;5006115;28;20252;-78
2021/11/20 03:02:11;;;;;;;2.30;2.20;;;6.90;99.90;;;;;;5008660;28;22031;-78
2021/11/20 03:04:40;;;;;;;2.60;2.40;;;6.90;99.90;;;;;;5009813;28;20228;-77
2021/11/20 03:07:07;;;;;;;2.55;2.35;;;6.80;99.90;;;;;;5007846;28;20239;-79
2021/11/20 03:09:36;;;;;;;2.17;2.08;;;6.80;99.90;;;;;;5005415;28;20244;-78
2021/11/20 03:12:07;;;;;;;2.85;2.65;;;6.80;99.90;;;;;;5002988;28;20237;-78
2021/11/20 03:14:35;;;;;;;2.58;2.38;;;6.70;99.90;;;;;;5009395;28;20310;-78
2021/11/20 03:17:05;;;;;;;2.65;2.50;;;6.70;99.90;;;;;;5008041;28;20220;-77
2021/11/20 03:19:34;;;;;;;3.15;2.58;;;6.70;99.90;;;;;;5007711;28;20706;-78
2021/11/20 03:22:06;;;;;;;3.13;2.90;;;6.70;99.90;;;;;;5003537;28;20235;-77
2021/11/20 03:24:33;;;;;;;3.08;2.88;;;6.70;99.90;;;;;;5004155;28;20231;-77
2021/11/20 03:27:01;;;;;;;2.38;2.28;;;6.70;99.90;;;;;;5005264;28;20243;-78
2021/11/20 03:29:29;;;;;;;2.92;2.72;;;6.70;99.90;;;;;;5005860;28;20730;-78
2021/11/20 03:31:58;;;;;;;2.30;2.20;;;6.70;99.90;;;;;;5006092;28;20231;-79
2021/11/20 03:34:27;;;;;;;2.22;2.13;;;6.70;99.90;;;;;;5006060;28;20746;-76
2021/11/20 03:36:55;;;;;;;3.40;2.60;;;6.70;99.90;;;;;;5005588;28;20235;-78
2021/11/20 03:39:24;;;;;;;2.40;2.30;;;6.70;99.90;;;;;;5005579;28;20232;-78
2021/11/20 03:41:51;;;;;;;2.50;2.30;;;6.70;99.90;;;;;;5005844;28;20232;-77
2021/11/20 03:44:19;;;;;;;2.40;2.30;;;6.70;99.90;;;;;;4999982;28;20655;-78
2021/11/20 03:46:47;;;;;;;2.58;2.40;;;6.70;99.90;;;;;;5003270;28;20231;-78
2021/11/20 03:49:15;;;;;;;2.60;2.40;;;6.70;99.90;;;;;;5001912;28;20231;-76
2021/11/20 03:51:42;;;;;;;2.47;2.38;;;6.70;99.90;;;;;;5001409;28;20232;-78
2021/11/20 03:54:10;;;;;;;2.42;2.30;;;6.70;99.90;;;;;;5002227;28;20223;-78
2021/11/20 03:56:39;;;;;;;2.35;2.25;;;6.80;99.90;;;;;;5003552;28;20224;-77
2021/11/20 03:59:07;;;;;;;2.30;2.20;;;6.70;99.90;;;;;;5002289;28;20282;-77
2021/11/20 04:01:34;;;;;;;2.47;2.33;;;6.70;99.90;;;;;;5003383;28;20234;-76
2021/11/20 04:04:02;;;;;;;2.72;2.63;;;6.70;99.90;;;;;;5005347;28;20224;-75
2021/11/20 04:06:29;;;;;;;2.67;2.47;;;6.70;99.90;;;;;;5006130;28;20239;-79
2021/11/20 04:08:56;;;;;;;2.50;2.30;;;6.70;99.90;;;;;;4998313;28;20237;-77
2021/11/20 04:11:26;;;;;;;2.88;2.67;;;6.70;99.90;;;;;;5007654;28;20794;-76
2021/11/20 04:13:55;;;;;;;2.75;2.55;;;6.70;99.90;;;;;;5002925;28;20220;-77
2021/11/20 04:16:25;;;;;;;2.63;2.50;;;6.70;99.90;;;;;;5005427;28;20220;-78
2021/11/20 04:18:52;;;;;;;2.40;2.20;;;6.70;99.90;;;;;;5001819;28;20239;-76
2021/11/20 04:21:21;;;;;;;2.95;2.75;;;6.70;99.90;;;;;;5000334;28;20248;-76
2021/11/20 04:23:50;;;;;;;2.90;2.70;;;6.70;99.90;;;;;;5009265;28;20236;-78
2021/11/20 04:26:21;;;;;;;2.97;2.78;;;6.70;99.90;;;;;;5002807;28;20232;-78
2021/11/20 04:28:48;;;;;;;2.35;2.25;;;6.70;99.90;;;;;;5005165;28;20233;-78
2021/11/20 04:31:19;;;;;;;2.67;2.55;;;6.70;99.90;;;;;;5008094;28;20252;-78
2021/11/20 04:33:47;;;;;;;2.60;2.50;;;6.60;99.90;;;;;;5005956;28;20600;-75
2021/11/20 04:36:15;;;;;;;2.22;2.13;;;6.60;99.90;;;;;;5003704;28;22368;-79
2021/11/20 04:38:42;;;;;;;2.30;2.20;;;6.60;99.90;;;;;;5012041;28;20254;-77
2021/11/20 04:41:10;;;;;;;2.75;2.40;;;6.50;99.90;;;;;;5008413;28;20705;-78
2021/11/20 04:43:37;;;;;;;2.22;2.13;;;6.50;99.90;;;;;;5007511;28;20233;-78
2021/11/20 04:46:05;;;;;;;2.38;2.28;;;6.50;99.90;;;;;;5008061;28;20219;-76
2021/11/20 04:48:33;;;;;;;2.50;2.40;;;6.50;99.90;;;;;;4984074;28;20228;-78
2021/11/20 04:51:01;;;;;;;2.30;2.20;;;6.50;99.90;;;;;;5020997;28;20216;-78
2021/11/20 04:53:30;;;;;;;2.53;2.42;;;6.50;99.90;;;;;;5010191;28;20224;-78
2021/11/20 04:55:58;;;;;;;2.40;2.30;;;6.50;99.90;;;;;;5006219;28;20220;-78
2021/11/20 04:58:25;;;;;;;2.35;2.25;;;6.60;99.90;;;;;;5007927;28;20248;-77
2021/11/20 05:00:54;;;;;;;2.55;2.35;;;6.60;99.90;;;;;;5009276;28;20258;-78
2021/11/20 05:03:23;;;;;;;2.38;2.28;;;6.60;99.90;;;;;;5009252;28;20227;-78
2021/11/20 05:05:54;;;;;;;2.30;2.20;;;6.60;99.90;;;;;;5009923;28;20251;-78
2021/11/20 05:08:22;;;;;;;2.30;2.20;;;6.60;99.90;;;;;;5005783;28;20234;-78
2021/11/20 05:10:50;;;;;;;2.50;2.40;;;6.50;99.90;;;;;;5008700;28;20254;-78
2021/11/20 05:13:18;;;;;;;2.42;2.22;;;6.50;99.90;;;;;;5012270;28;20602;-77
2021/11/20 05:15:47;;;;;;;2.65;2.45;;;6.50;99.90;;;;;;5009945;28;20233;-76
2021/11/20 05:18:15;;;;;;;2.63;2.42;;;6.50;99.90;;;;;;5000046;28;20254;-77
2021/11/20 05:20:43;;;;;;;2.50;2.40;;;6.40;99.90;;;;;;5000933;28;20327;-76
2021/11/20 05:23:13;;;;;;;2.70;2.50;;;6.40;99.90;;;;;;5006024;28;20228;-78
2021/11/20 05:25:41;;;;;;;2.30;2.10;;;6.40;99.90;;;;;;5006270;28;20778;-78
2021/11/20 05:28:09;;;;;;;2.38;2.28;;;6.40;99.90;;;;;;5006392;28;20763;-78
2021/11/20 05:30:39;;;;;;;2.42;2.33;;;6.40;99.90;;;;;;5004471;28;20228;-78
2021/11/20 05:33:10;;;;;;;2.25;2.15;;;6.40;99.90;;;;;;5007255;28;20698;-77
2021/11/20 05:35:38;;;;;;;2.25;2.15;;;6.40;99.90;;;;;;5004570;28;20733;-77
2021/11/20 05:38:05;;;;;;;2.22;2.13;;;6.40;99.90;;;;;;5003576;28;20234;-78
2021/11/20 05:40:34;;;;;;;2.92;2.72;;;6.50;99.90;;;;;;5003004;28;20236;-77
2021/11/20 05:43:05;;;;;;;2.47;2.38;;;6.40;99.90;;;;;;5003849;28;20223;-78
2021/11/20 05:45:36;;;;;;;3.10;2.80;;;6.40;99.90;;;;;;5002788;28;20241;-77
2021/11/20 05:48:04;;;;;;;3.78;3.38;;;6.50;99.90;;;;;;5007136;28;20243;-78
2021/11/20 05:50:31;;;;;;;4.05;3.75;;;6.50;99.90;;;;;;5006617;28;20231;-80
2021/11/20 05:52:58;;;;;;;2.95;2.75;;;6.40;99.90;;;;;;5004641;28;20227;-76
2021/11/20 05:55:30;;;;;;;2.83;2.63;;;6.30;99.90;;;;;;5004195;28;20230;-76
2021/11/20 05:57:59;;;;;;;2.38;2.25;;;6.20;99.90;;;;;;5005818;28;20606;-78
2021/11/20 06:00:30;;;;;;;2.78;2.58;;;6.20;99.90;;;;;;5011243;28;20235;-78
2021/11/20 06:03:00;;;;;;;2.50;2.35;;;6.20;99.90;;;;;;5009120;28;20230;-79
2021/11/20 06:05:28;;;;;;;2.42;2.33;;;6.20;99.90;;;;;;5009268;28;20232;-79
2021/11/20 06:07:55;;;;;;;3.20;2.50;;;6.20;99.90;;;;;;5007768;28;20239;-76
2021/11/20 06:10:23;;;;;;;2.92;2.72;;;6.30;99.90;;;;;;5005683;28;20232;-77
2021/11/20 06:12:50;;;;;;;3.00;2.80;;;6.30;99.90;;;;;;5009178;28;20256;-76
2021/11/20 06:15:18;;;;;;;2.65;2.55;;;6.30;99.90;;;;;;5004510;28;20232;-76
2021/11/20 06:17:45;;;;;;;2.75;2.55;;;6.30;99.90;;;;;;4998183;28;20263;-77
2021/11/20 06:20:13;;;;;;;2.55;2.40;;;6.40;99.90;;;;;;5001779;28;20236;-78
2021/11/20 06:22:40;;;;;;;2.67;2.47;;;6.40;99.90;;;;;;5002473;28;20238;-77
2021/11/20 06:25:09;;;;;;;2.63;2.53;;;6.30;99.90;;;;;;5006834;28;20621;-78
2021/11/20 06:27:36;;;;;;;2.70;2.50;;;6.40;99.90;;;;;;5004232;28;20602;-79
2021/11/20 06:30:04;;;;;;;2.80;2.40;;;6.40;99.90;;;;;;5003591;28;20227;-79
2021/11/20 06:32:33;;;;;;;2.53;2.33;;;6.40;99.90;;;;;;5004639;28;20730;-76
2021/11/20 06:35:00;;;;;;;3.20;2.90;;;6.40;99.90;;;;;;5003211;28;20277;-77
2021/11/20 06:37:27;;;;;;;4.13;3.58;;;6.40;99.90;;;;;;5007644;28;20695;-78
2021/11/20 06:39:54;;;;;;;3.47;3.17;;;6.40;99.90;;;;;;5004594;28;20228;-76
2021/11/20 06:42:21;;;;;;;3.60;3.30;;;6.40;99.90;;;;;;5008316;28;20610;-79
2021/11/20 06:44:48;;;;;;;3.63;3.33;;;6.30;99.90;;;;;;5007015;28;20246;-78
2021/11/20 06:47:16;;;;;;;4.30;3.92;;;6.40;99.90;;;;;;5004997;28;20252;-78
2021/11/20 06:49:44;;;;;;;3.80;3.50;;;6.30;99.90;;;;;;5004350;28;20304;-79
2021/11/20 06:52:11;;;;;;;3.42;3.13;;;6.40;99.90;;;;;;5004275;28;20715;-79
2021/11/20 06:54:38;;;;;;;3.58;3.28;;;6.40;99.90;;;;;;5005024;28;20875;-78
2021/11/20 06:57:08;;;;;;;3.13;2.92;;;6.40;99.90;;;;;;5008849;28;20224;-78
2021/11/20 07:02:31;;;;;;;2.92;2.22;;;6.50;99.90;;;;;;5003213;28;20227;-77
2021/11/20 07:05:00;;;;;;;3.28;2.97;;;6.40;99.90;;;;;;5005656;28;20587;-79
2021/11/20 07:07:28;;;;;;;3.10;2.88;;;6.50;99.90;;;;;;5005388;28;20239;-77
2021/11/20 07:09:55;;;;;;;2.53;2.42;;;6.50;99.90;;;;;;5014850;23;20235;-73
2021/11/20 07:12:23;;;;;;;2.55;2.42;;;6.40;99.90;;;;;;5004137;28;20241;-75
2021/11/20 07:14:50;;;;;;;2.33;2.13;;;6.50;99.90;;;;;;5005503;28;20485;-74
2021/11/20 07:17:17;;;;;;;4.32;3.47;;;6.50;99.90;;;;;;4998590;28;20695;-74
2021/11/20 07:19:45;;;;;;;3.03;2.80;;;6.60;99.90;;;;;;5000678;28;20259;-74
2021/11/20 07:22:13;;;;;;;2.47;2.35;;;6.60;99.90;;;;;;5001257;28;20243;-74
2021/11/20 07:24:40;;;;;;;2.92;2.72;;;6.70;99.90;;;;;;5002844;28;20231;-74
2021/11/20 07:27:08;;;;;;;2.30;2.20;;;6.70;99.90;;;;;;5002784;28;20223;-76
2021/11/20 07:29:35;;;;;;;2.50;2.40;;;6.80;99.90;;;;;;5002292;28;20244;-75
2021/11/20 07:32:02;;;;;;;2.88;2.67;;;6.80;99.90;;;;;;5001447;28;20223;-74
2021/11/20 07:34:29;;;;;;;2.92;2.70;;;6.80;99.90;;;;;;5002906;28;20224;-74
2021/11/20 07:36:58;;;;;;;2.95;2.75;;;6.70;99.90;;;;;;4996026;28;20421;-73
2021/11/20 07:39:26;;;;;;;3.50;3.30;;;6.60;99.90;;;;;;4997363;28;20242;-74
2021/11/20 07:41:53;;;;;;;3.10;2.90;;;6.50;99.90;;;;;;5002417;28;20224;-74
2021/11/20 07:44:21;;;;;;;2.60;2.50;;;6.50;99.90;;;;;;5003381;28;20228;-74
2021/11/20 07:46:48;;;;;;;2.88;2.67;;;6.50;99.90;;;;;;5001675;28;20231;-73
2021/11/20 07:49:15;;;;;;;2.53;2.33;;;6.60;99.90;;;;;;5000120;28;20231;-74
2021/11/20 07:51:44;;;;;;;2.88;2.78;;;6.60;99.90;;;;;;5000702;28;20223;-74
2021/11/20 07:54:12;;;;;;;3.22;2.92;;;6.80;99.90;;;;;;5003649;28;20223;-74
2021/11/20 07:56:42;;;;;;;2.88;2.67;;;7.70;99.90;;;;;;4999478;28;20718;-74
2021/11/20 07:59:10;;;;;;;3.30;3.10;;;8.70;99.90;;;;;;5005998;28;20235;-74
2021/11/20 08:01:37;;;;;;;2.88;2.67;;;9.80;99.90;;;;;;5002252;28;20251;-74
2021/11/20 08:04:05;;;;;;;2.78;2.55;;;10.60;99.90;;;;;;5009189;28;20220;-76
2021/11/20 08:06:34;;;;;;;3.35;3.05;;;11.40;99.90;;;;;;5008942;28;20239;-77
2021/11/20 08:09:04;;;;;;;2.85;2.65;;;12.00;99.90;;;;;;5008004;28;20231;-79
2021/11/20 08:11:32;;;;;;;3.35;3.00;;;12.50;99.90;;;;;;5007216;28;20234;-75
2021/11/20 08:14:01;;;;;;;2.95;2.75;;;12.90;99.90;;;;;;5005681;28;20251;-73
2021/11/20 08:16:29;;;;;;;3.80;2.90;;;13.10;99.90;;;;;;5005803;28;20698;-74
2021/11/20 08:18:57;;;;;;;3.60;2.80;;;13.50;99.90;;;;;;5004620;28;20236;-77
2021/11/20 08:21:24;;;;;;;4.15;3.40;;;13.80;99.90;;;;;;5003095;28;20239;-76
2021/11/20 08:23:51;;;;;;;3.40;3.10;;;14.00;99.90;;;;;;4991833;28;20224;-75
2021/11/20 08:26:19;;;;;;;4.82;3.00;;;14.30;99.90;;;;;;4998247;28;20713;-78
2021/11/20 08:28:46;;;;;;;5.38;3.10;;;14.60;99.90;;;;;;4996167;28;20335;-77
2021/11/20 08:31:15;;;;;;;6.07;3.40;;;14.90;99.90;;;;;;4994328;28;20239;-77
2021/11/20 08:33:42;;;;;;;2.83;2.63;;;15.30;99.90;;;;;;4995635;28;20224;-76
2021/11/20 08:36:11;;;;;;;3.33;3.03;;;15.20;99.90;;;;;;4998272;28;20212;-76
2021/11/20 08:38:38;;;;;;;3.42;2.90;;;15.30;99.90;;;;;;4996515;28;20231;-75
2021/11/20 08:41:06;;;;;;;3.75;3.33;;;15.50;99.90;;;;;;4998292;28;20239;-79
2021/11/20 08:43:33;;;;;;;3.40;3.05;;;15.80;99.90;;;;;;4993644;28;20568;-79
2021/11/20 08:46:03;;;;;;;3.70;3.33;;;16.20;99.90;;;;;;4996021;28;20224;-78
2021/11/20 08:48:32;;;;;;;4.60;3.40;;;16.50;99.90;;;;;;4993441;28;20443;-79
2021/11/20 08:51:02;;;;;;;3.20;2.90;;;16.70;99.90;;;;;;4995106;28;20238;-76
2021/11/20 08:53:29;;;;;;;4.88;3.10;;;16.80;99.90;;;;;;4992949;28;20225;-77
2021/11/20 08:55:56;;;;;;;2.90;2.65;;;17.00;99.90;;;;;;4996538;28;20220;-79
2021/11/20 08:58:24;;;;;;;2.55;2.35;;;17.10;99.90;;;;;;4996028;28;20509;-75
2021/11/20 09:00:53;;;;;;;3.30;3.00;;;17.30;99.90;;;;;;4996117;28;20220;-75
2021/11/20 09:03:24;;;;;;;4.97;3.47;;;18.00;99.90;;;;;;4995146;28;20216;-73
2021/11/20 09:05:57;;;;;;;4.13;3.72;;;19.00;99.90;;;;;;4997052;28;20223;-78
2021/11/20 09:08:27;;;;;;;5.68;3.45;;;20.20;99.90;;;;;;4994044;28;20339;-75
2021/11/20 09:10:59;;;;;;;4.15;3.55;;;21.70;99.90;;;;;;4995432;28;20224;-74
2021/11/20 09:13:30;;;;;;;3.50;3.20;;;22.90;99.90;;;;;;4990278;28;20669;-79
2021/11/20 09:16:04;;;;;;;5.45;3.03;;;24.10;99.90;;;;;;4990444;28;21089;-77
2021/11/20 09:18:33;;;;;;;3.38;2.63;;;25.10;99.40;;;;;;4994021;28;20658;-75
2021/11/20 09:21:05;;;;;;;3.00;2.70;;;25.50;96.80;;;;;;4997178;28;20525;-77
2021/11/20 09:23:33;;;;;;;3.42;3.13;;;25.80;94.80;;;;;;4995477;28;20247;-75
2021/11/20 09:26:00;;;;;;;4.88;2.92;;;26.00;94.20;;;;;;4995157;28;20259;-77
2021/11/20 09:28:28;;;;;;;3.38;3.00;;;26.00;94.00;;;;;;4992253;28;20234;-76
2021/11/20 09:30:58;;;;;;;4.82;3.10;;;25.50;94.40;;;;;;4992200;28;20232;-78
2021/11/20 09:33:26;;;;;;;3.88;3.50;;;24.60;95.60;;;;;;4991780;28;20235;-76
2021/11/20 09:35:54;;;;;;;6.28;3.92;;;23.40;97.10;;;;;;4996049;28;20228;-75
2021/11/20 09:38:25;;;;;;;4.45;3.80;;;21.90;99.10;;;;;;4994092;28;20263;-75
2021/11/20 09:40:56;;;;;;;4.60;3.45;;;20.60;99.90;;;;;;4995668;28;20231;-74
2021/11/20 09:43:26;;;;;;;4.05;3.40;;;19.50;99.90;;;;;;4995698;28;20228;-74
2021/11/20 09:45:58;;;;;;;4.00;3.60;;;18.50;99.90;;;;;;4996880;28;20227;-74
2021/11/20 09:48:30;;;;;;;4.78;3.92;;;17.90;99.90;;;;;;4993457;28;20228;-75
2021/11/20 09:51:11;;;;;;;3.78;3.38;;;17.50;99.90;;;;;;4993864;28;20853;-75
2021/11/20 09:53:40;;;;;;;3.50;3.20;;;17.40;99.90;;;;;;4993299;28;20243;-75
2021/11/20 09:56:14;;;;;;;3.50;3.20;;;17.40;99.90;;;;;;4995617;28;20312;-76
2021/11/20 09:58:43;;;;;;;4.60;3.67;;;17.50;99.90;;;;;;4994914;28;20239;-79
2021/11/20 10:01:32;;;;;;;3.75;2.92;;;17.50;99.90;;;;;;4996496;28;20211;-77
2021/11/20 10:04:26;;;;;;;3.78;3.40;;;17.40;99.90;;;;;;4992951;28;20726;-75
2021/11/20 10:07:07;;;;;;;4.60;3.20;;;17.20;99.90;;;;;;5000317;28;20682;-77
2021/11/20 10:09:35;;;;;;;3.30;3.00;;;17.10;99.90;;;;;;4992685;28;20271;-76
2021/11/20 10:12:14;;;;;;;3.55;2.83;;;16.90;99.90;;;;;;4995682;28;20230;-76
2021/11/20 10:14:45;;;;;;;5.78;2.95;;;16.80;99.90;;;;;;4993751;28;20330;-74
2021/11/20 10:17:18;;;;;;;4.53;3.30;;;16.70;99.90;;;;;;4994923;28;20236;-75
2021/11/20 10:19:48;;;;;;;3.10;2.67;;;16.60;99.90;;;;;;4993285;28;20232;-77
2021/11/20 10:22:20;;;;;;;4.05;2.72;;;16.40;99.90;;;;;;4994272;28;20240;-75
2021/11/20 10:25:04;;;;;;;2.80;2.60;;;16.40;99.90;;;;;;4995810;28;20227;-75
2021/11/20 10:27:55;;;;;;;5.55;3.10;;;16.40;99.90;;;;;;4993752;28;20231;-76
2021/11/20 10:30:32;;;;;;;3.42;2.63;;;16.50;99.90;;;;;;4995456;28;20232;-76
2021/11/20 10:33:04;;;;;;;4.15;3.10;;;16.90;99.90;;;;;;4992117;28;20231;-75
2021/11/20 10:35:36;;;;;;;3.38;3.08;;;17.10;99.90;;;;;;4995377;28;20231;-74
2021/11/20 10:38:11;;;;;;;4.05;3.30;;;17.40;99.90;;;;;;4993523;28;20776;-76
2021/11/20 10:40:45;;;;;;;3.03;2.83;;;17.70;99.90;;;;;;4994795;28;20234;-76
2021/11/20 10:43:22;;;;;;;5.30;3.17;;;17.90;99.90;;;;;;4994914;28;20622;-74
2021/11/20 10:45:52;;;;;;;5.65;3.33;;;17.90;99.90;;;;;;4996682;28;20215;-75
2021/11/20 10:48:31;;;;;;;3.22;2.70;;;18.00;99.90;;;;;;4993174;28;20657;-77
2021/11/20 10:51:42;;;;;;;4.10;2.70;;;18.00;99.90;;;;;;4993743;28;20216;-75
2021/11/20 10:54:51;;;;;;;3.22;2.90;;;18.00;99.90;;;;;;4994796;28;20224;-78
2021/11/20 10:57:35;;;;;;;3.50;3.20;;;17.90;99.90;;;;;;4991745;28;20232;-76
2021/11/20 11:00:24;;;;;;;4.55;3.03;;;17.90;99.90;;;;;;4991233;28;20216;-75
2021/11/20 11:03:24;;;;;;;2.78;2.50;;;18.10;99.90;;;;;;4994560;28;20232;-74
2021/11/20 11:06:25;;;;;;;3.85;3.38;;;18.30;99.90;;;;;;4981158;28;20235;-74
2021/11/20 11:09:00;;;;;;;3.70;3.17;;;18.40;99.90;;;;;;4991182;28;20223;-75
2021/11/20 11:11:33;;;;;;;7.85;3.25;;;18.30;99.90;;;;;;4994429;28;20694;-75
2021/11/20 11:14:31;;;;;;;3.92;3.35;;;18.40;99.90;;;;;;4991904;28;20220;-74
2021/11/20 11:17:15;;;;;;;3.40;3.10;;;18.40;99.90;;;;;;4994260;28;20259;-76
2021/11/20 11:19:48;;;;;;;3.33;3.03;;;18.50;99.90;;;;;;4992463;28;20618;-74
2021/11/20 11:22:24;;;;;;;3.35;2.92;;;18.50;99.90;;;;;;4995928;28;20228;-75
2021/11/20 11:25:17;;;;;;;3.40;3.10;;;18.50;99.90;;;;;;4994817;28;20234;-73
2021/11/20 11:28:21;;;;;;;3.35;2.90;;;18.50;99.90;;;;;;4996908;28;20235;-74
2021/11/20 11:30:54;;;;;;;3.72;3.10;;;18.40;99.90;;;;;;4990495;28;20445;-74
2021/11/20 11:33:21;;;;;;;2.83;2.63;;;18.30;99.90;;;;;;4994080;28;20597;-76
2021/11/20 11:35:56;;;;;;;3.25;2.85;;;18.30;99.90;;;;;;4993002;28;20224;-76
2021/11/20 11:39:00;;;;;;;3.50;2.53;;;18.40;99.90;;;;;;4977636;28;20693;-75
2021/11/20 11:41:40;;;;;;;3.25;2.95;;;18.20;99.90;;;;;;4983747;28;20244;-74
2021/11/20 11:44:12;;;;;;;6.00;2.92;;;18.30;99.90;;;;;;4994599;28;20231;-75
2021/11/20 11:46:54;;;;;;;2.70;2.50;;;18.20;99.90;;;;;;4983439;28;20227;-75
2021/11/20 11:50:15;;;;;;;3.65;2.75;;;18.00;99.90;;;;;;4993071;28;20260;-75
2021/11/20 11:52:49;;;;;;;3.17;2.88;;;17.90;99.90;;;;;;4929216;28;20226;-76
2021/11/20 11:55:26;;;;;;;5.07;3.03;;;17.70;99.90;;;;;;4930912;28;20559;-78
2021/11/20 11:58:11;;;;;;;2.83;2.53;;;17.80;99.90;;;;;;4974517;28;20234;-75
2021/11/20 12:00:41;;;;;;;3.33;3.03;;;17.90;99.90;;;;;;4992831;28;20435;-75
2021/11/20 12:03:29;;;;;;;3.42;2.83;;;18.00;99.90;;;;;;4983471;28;20256;-74
2021/11/20 12:06:08;;;;;;;3.15;2.83;;;17.80;99.90;;;;;;4988988;28;20254;-74
2021/11/20 12:08:42;;;;;;;5.50;3.05;;;17.70;99.90;;;;;;4985746;28;20521;-74
2021/11/20 12:11:14;;;;;;;4.97;2.60;;;17.70;99.90;;;;;;4988146;28;20224;-74
2021/11/20 12:13:48;;;;;;;4.20;2.78;;;17.70;99.90;;;;;;4991602;28;20789;-74
2021/11/20 12:16:44;;;;;;;3.22;2.50;;;17.30;99.90;;;;;;4990151;28;20602;-74
2021/11/20 12:19:26;;;;;;;2.97;2.67;;;16.80;99.90;;;;;;4987300;28;20216;-75
2021/11/20 12:21:59;;;;;;;5.90;2.50;;;16.70;99.90;;;;;;4992783;28;20648;-78
2021/11/20 12:24:33;;;;;;;4.43;2.50;;;17.10;99.90;;;;;;4990431;28;20220;-76
2021/11/20 12:27:05;;;;;;;2.53;2.20;;;17.30;99.90;;;;;;4983120;28;20891;-74
2021/11/20 12:29:56;;;;;;;2.70;2.50;;;17.60;99.90;;;;;;4986624;28;20236;-74
2021/11/20 12:32:45;;;;;;;2.70;2.50;;;17.90;99.90;;;;;;4991243;28;20208;-75
2021/11/20 12:35:43;;;;;;;2.50;2.30;;;18.10;99.90;;;;;;4990563;28;20255;-74
2021/11/20 12:38:29;;;;;;;2.80;2.50;;;18.20;99.90;;;;;;4993165;28;20220;-75
2021/11/20 12:41:18;;;;;;;6.57;3.00;;;18.20;99.90;;;;;;4990172;28;20220;-75
2021/11/20 12:44:18;;;;;;;4.95;2.83;;;18.40;99.90;;;;;;4997119;28;20238;-75
2021/11/20 12:46:54;;;;;;;3.22;1.92;;;18.30;99.90;;;;;;4996678;28;20730;-74
2021/11/20 12:49:34;;;;;;;2.67;2.45;;;18.30;99.90;;;;;;4993753;28;20636;-73
2021/11/20 12:52:22;;;;;;;3.55;2.42;;;18.20;99.90;;;;;;4992932;28;20234;-74
2021/11/20 12:54:58;;;;;;;2.90;2.60;;;18.20;99.90;;;;;;4992305;28;20223;-74
2021/11/20 12:57:29;;;;;;;2.88;2.58;;;18.10;99.90;;;;;;4992248;28;20224;-77
2021/11/20 13:00:10;;;;;;;2.75;2.47;;;18.10;99.90;;;;;;4993383;28;20226;-74
2021/11/20 13:02:41;;;;;;;2.35;2.15;;;18.00;99.90;;;;;;4991961;28;20260;-74
2021/11/20 13:05:21;;;;;;;3.65;2.50;;;17.60;99.90;;;;;;4995528;28;20239;-75
2021/11/20 13:07:53;;;;;;;2.65;2.40;;;17.40;99.90;;;;;;4994324;28;20439;-75
2021/11/20 13:10:27;;;;;;;3.30;2.10;;;17.40;99.90;;;;;;5012094;22;20223;-77
2021/11/20 13:12:58;;;;;;;2.60;2.40;;;17.50;99.90;;;;;;4991544;28;20235;-75
2021/11/20 13:15:37;;;;;;;2.90;2.42;;;17.60;99.90;;;;;;4987872;28;20251;-76
2021/11/20 13:18:17;;;;;;;2.50;2.30;;;17.70;99.90;;;;;;4988979;28;20240;-76
2021/11/20 13:20:55;;;;;;;2.28;2.05;;;17.60;99.90;;;;;;4994956;28;22127;-76